Weather at Simón Bolívar International Airport

Public forecast

Using degrees Celsius for public forecast. Weather courtesy of forecast.io.

Current aviation weather report (METAR) for Simón Bolívar International Airport

Retrieved 2021/12/08 12:00 UTC (55 minutes ago):

SVMI 081200Z 00000KT 9999 FEW016 27/22 Q1014

Aviation forecast (TAF) for Simón Bolívar International Airport

Retrieved 2021/12/08 12:00 UTC (55 minutes ago):

TAF SVMI 081000Z 0812/0912 09005KT 9999 SCT016 TX33/0818Z TN22/0808Z BECMG 0810/0816 09005KT 9999 BKN016